Time;durP1;ratioP1;P1;durP2;ratioP2;P2;SDS_P1;SDS_P2;PMS_P1;PMS_P2;Temp;Humidity;BMP_temperature;BMP_pressure;BME280_temperature;BME280_humidity;BME280_pressure;Samples;Min_cycle;Max_cycle;Signal;HPM_P1;HPM_P2
2023/03/16 00:02:23;;;;;;;;;;;;;;;;;;5074820;28;19908;-47
2023/03/16 00:04:48;;;;;;;;;;;;;;;;;;5074836;28;20392;-47
2023/03/16 00:07:14;;;;;;;;;;;;;;;;;;5074869;28;20003;-43
2023/03/16 00:09:42;;;;;;;;;;;;;;;;;;5074483;28;19916;-46
2023/03/16 00:12:07;;;;;;;;;;;;;;;;;;5075280;28;20277;-44
2023/03/16 00:14:34;;;;;;;;;;;;;;;;;;5074732;28;19916;-44
2023/03/16 00:16:59;;;;;;;;;;;;;;;;;;5074007;28;19921;-43
2023/03/16 00:19:25;;;;;;;;;;;;;;;;;;5074167;28;19908;-45
2023/03/16 00:21:50;;;;;;;;;;;;;;;;;;5074678;28;19915;-46
2023/03/16 00:24:17;;;;;;;;;;;;;;;;;;5074704;28;19955;-43
2023/03/16 00:26:42;;;;;;;;;;;;;;;;;;5074591;28;19962;-44
2023/03/16 00:29:08;;;;;;;;;;;;;;;;;;5074189;28;19921;-44
2023/03/16 00:31:34;;;;;;;;;;;;;;;;;;5074262;28;19912;-46
2023/03/16 00:34:01;;;;;;;;;;;;;;;;;;5072688;28;20282;-44
2023/03/16 00:36:27;;;;;;;;;;;;;;;;;;5068113;28;20411;-45
2023/03/16 00:38:53;;;;;;;;;;;;;;;;;;5061465;28;19980;-45
2023/03/16 00:41:18;;;;;;;;;;;;;;;;;;5071895;28;19951;-44
2023/03/16 00:43:44;;;;;;;;;;;;;;;;;;5063171;28;19932;-45
2023/03/16 00:46:10;;;;;;;;;;;;;;;;;;5069411;28;19917;-43
2023/03/16 00:48:35;;;;;;;;;;;;;;;;;;5073292;28;20248;-46
2023/03/16 00:51:01;;;;;;;;;;;;;;;;;;5066445;28;19912;-46
2023/03/16 00:53:27;;;;;;;;;;;;;;;;;;5069970;28;20377;-43
2023/03/16 00:55:52;;;;;;;;;;;;;;;;;;5065396;28;19951;-43
2023/03/16 00:58:18;;;;;;;;;;;;;;;;;;5074041;28;19947;-46
2023/03/16 01:00:44;;;;;;;;;;;;;;;;;;5073460;28;19924;-43
2023/03/16 01:03:09;;;;;;;;;;;;;;;;;;5068620;28;20024;-47
2023/03/16 01:05:35;;;;;;;;;;;;;;;;;;5069644;28;19917;-45
2023/03/16 01:08:03;;;;;;;;;;;;;;;;;;5073821;28;19955;-44
2023/03/16 01:10:28;;;;;;;;;;;;;;;;;;5073186;28;19995;-44
2023/03/16 01:12:54;;;;;;;;;;;;;;;;;;5074006;28;20352;-46
2023/03/16 01:15:20;;;;;;;;;;;;;;;;;;5058393;28;19924;-45
2023/03/16 01:17:45;;;;;;;;;;;;;;;;;;5072859;28;19920;-44
2023/03/16 01:20:11;;;;;;;;;;;;;;;;;;5057888;28;19917;-44
2023/03/16 01:22:36;;;;;;;;;;;;;;;;;;5055346;28;19916;-43
2023/03/16 01:25:02;;;;;;;;;;;;;;;;;;5053381;28;19920;-43
2023/03/16 01:27:28;;;;;;;;;;;;;;;;;;5053489;28;19913;-47
2023/03/16 01:29:54;;;;;;;;;;;;;;;;;;5052010;28;19927;-46
2023/03/16 01:32:19;;;;;;;;;;;;;;;;;;5053529;28;19909;-46
2023/03/16 01:34:44;;;;;;;;;;;;;;;;;;5053130;28;19908;-43
2023/03/16 01:37:10;;;;;;;;;;;;;;;;;;5052925;28;19908;-43
2023/03/16 01:39:35;;;;;;;;;;;;;;;;;;5052882;28;20022;-43
2023/03/16 01:42:01;;;;;;;;;;;;;;;;;;5053163;28;19909;-47
2023/03/16 01:44:31;;;;;;;;;;;;;;;;;;5052885;28;19917;-43
2023/03/16 01:46:56;;;;;;;;;;;;;;;;;;5052918;28;19909;-44
2023/03/16 01:49:22;;;;;;;;;;;;;;;;;;5052654;28;20058;-44
2023/03/16 01:51:50;;;;;;;;;;;;;;;;;;5052864;28;19913;-45
2023/03/16 01:54:16;;;;;;;;;;;;;;;;;;5052822;28;20291;-43
2023/03/16 01:56:41;;;;;;;;;;;;;;;;;;5052491;28;19909;-46
2023/03/16 01:59:07;;;;;;;;;;;;;;;;;;5052461;28;20024;-46
2023/03/16 02:01:32;;;;;;;;;;;;;;;;;;5052579;28;19973;-44
2023/03/16 02:03:57;;;;;;;;;;;;;;;;;;5052925;28;19913;-43
2023/03/16 02:06:23;;;;;;;;;;;;;;;;;;5052646;28;19913;-44
2023/03/16 02:08:48;;;;;;;;;;;;;;;;;;5052350;28;19977;-45
2023/03/16 02:11:16;;;;;;;;;;;;;;;;;;5052238;28;19969;-46
2023/03/16 02:13:42;;;;;;;;;;;;;;;;;;5052322;28;19910;-43
2023/03/16 02:16:07;;;;;;;;;;;;;;;;;;5052283;28;19921;-46
2023/03/16 02:18:33;;;;;;;;;;;;;;;;;;5052573;28;20268;-43
2023/03/16 02:20:58;;;;;;;;;;;;;;;;;;5052368;28;20365;-47
2023/03/16 02:23:24;;;;;;;;;;;;;;;;;;5052183;28;19913;-46
2023/03/16 02:25:50;;;;;;;;;;;;;;;;;;5052288;28;19995;-47
2023/03/16 02:28:15;;;;;;;;;;;;;;;;;;5052101;28;19916;-47
2023/03/16 02:30:41;;;;;;;;;;;;;;;;;;5066708;28;19917;-48
2023/03/16 02:33:06;;;;;;;;;;;;;;;;;;5072237;28;19908;-44
2023/03/16 02:35:32;;;;;;;;;;;;;;;;;;5072281;28;19908;-46
2023/03/16 02:37:57;;;;;;;;;;;;;;;;;;5072148;28;19915;-46
2023/03/16 02:40:23;;;;;;;;;;;;;;;;;;5071754;28;19935;-44
2023/03/16 02:42:48;;;;;;;;;;;;;;;;;;5071840;28;20288;-46
2023/03/16 02:45:13;;;;;;;;;;;;;;;;;;5080679;22;19912;-43
2023/03/16 02:47:40;;;;;;;;;;;;;;;;;;5092974;28;19988;-45
2023/03/16 02:50:09;;;;;;;;;;;;;;;;;;5091932;28;20123;-46
2023/03/16 02:52:34;;;;;;;;;;;;;;;;;;5092524;28;19908;-44
2023/03/16 02:55:00;;;;;;;;;;;;;;;;;;5092422;28;19916;-44
2023/03/16 02:57:25;;;;;;;;;;;;;;;;;;5073750;28;19913;-45
2023/03/16 02:59:51;;;;;;;;;;;;;;;;;;5071730;28;19908;-47
2023/03/16 03:02:16;;;;;;;;;;;;;;;;;;5072018;28;19915;-47
2023/03/16 03:04:45;;;;;;;;;;;;;;;;;;5071996;28;20000;-46
2023/03/16 03:07:10;;;;;;;;;;;;;;;;;;5071937;28;20313;-47
2023/03/16 03:09:35;;;;;;;;;;;;;;;;;;5071849;28;20023;-47
2023/03/16 03:12:01;;;;;;;;;;;;;;;;;;5071847;28;19914;-46
2023/03/16 03:14:27;;;;;;;;;;;;;;;;;;5079481;28;19916;-45
2023/03/16 03:16:52;;;;;;;;;;;;;;;;;;5084192;28;19935;-44
2023/03/16 03:19:18;;;;;;;;;;;;;;;;;;5088636;28;19916;-46
2023/03/16 03:21:43;;;;;;;;;;;;;;;;;;5083481;28;19916;-44
2023/03/16 03:24:09;;;;;;;;;;;;;;;;;;5092060;28;19908;-48
2023/03/16 03:26:36;;;;;;;;;;;;;;;;;;5091948;28;20342;-47
2023/03/16 03:29:02;;;;;;;;;;;;;;;;;;5079204;28;19927;-47
2023/03/16 03:31:27;;;;;;;;;;;;;;;;;;5089959;28;19998;-44
2023/03/16 03:33:52;;;;;;;;;;;;;;;;;;5091840;28;20003;-44
2023/03/16 03:36:18;;;;;;;;;;;;;;;;;;5090186;28;19916;-45
2023/03/16 03:38:43;;;;;;;;;;;;;;;;;;5090811;28;19913;-46
2023/03/16 03:41:09;;;;;;;;;;;;;;;;;;5091133;28;19913;-43
2023/03/16 03:43:34;;;;;;;;;;;;;;;;;;5091578;28;19912;-46
2023/03/16 03:45:59;;;;;;;;;;;;;;;;;;5091427;28;19924;-47
2023/03/16 03:48:25;;;;;;;;;;;;;;;;;;5089977;28;19915;-46
2023/03/16 03:50:50;;;;;;;;;;;;;;;;;;5091425;28;19908;-45
2023/03/16 03:53:16;;;;;;;;;;;;;;;;;;5094198;28;19912;-44
2023/03/16 03:55:41;;;;;;;;;;;;;;;;;;5094734;28;20002;-44
2023/03/16 03:58:07;;;;;;;;;;;;;;;;;;5095095;28;19935;-45
2023/03/16 04:00:32;;;;;;;;;;;;;;;;;;5088438;28;19936;-44
2023/03/16 04:02:57;;;;;;;;;;;;;;;;;;5088928;28;20383;-46
2023/03/16 04:05:26;;;;;;;;;;;;;;;;;;5094575;28;20522;-47
2023/03/16 04:07:56;;;;;;;;;;;;;;;;;;5074855;28;19915;-45
2023/03/16 04:10:21;;;;;;;;;;;;;;;;;;5075258;28;19939;-43
2023/03/16 04:12:46;;;;;;;;;;;;;;;;;;5094843;28;20340;-46
2023/03/16 04:15:12;;;;;;;;;;;;;;;;;;5078605;28;20384;-47
2023/03/16 04:17:37;;;;;;;;;;;;;;;;;;5075721;28;20377;-46
2023/03/16 04:20:06;;;;;;;;;;;;;;;;;;5094829;28;19919;-44
2023/03/16 04:22:31;;;;;;;;;;;;;;;;;;5084447;28;20353;-44
2023/03/16 04:24:57;;;;;;;;;;;;;;;;;;5087754;28;19912;-44
2023/03/16 04:27:22;;;;;;;;;;;;;;;;;;5094004;28;19938;-47
2023/03/16 04:29:48;;;;;;;;;;;;;;;;;;5094214;28;20367;-44
2023/03/16 04:32:13;;;;;;;;;;;;;;;;;;5094548;28;19912;-47
2023/03/16 04:34:42;;;;;;;;;;;;;;;;;;5094491;28;19966;-44
2023/03/16 04:37:07;;;;;;;;;;;;;;;;;;5094284;28;19908;-45
2023/03/16 04:39:33;;;;;;;;;;;;;;;;;;5094076;28;19931;-47
2023/03/16 04:41:59;;;;;;;;;;;;;;;;;;5090112;28;19924;-47
2023/03/16 04:44:24;;;;;;;;;;;;;;;;;;5075573;28;19912;-45
2023/03/16 04:46:50;;;;;;;;;;;;;;;;;;5094144;28;20376;-45
2023/03/16 04:49:15;;;;;;;;;;;;;;;;;;5093662;28;19920;-43
2023/03/16 04:51:41;;;;;;;;;;;;;;;;;;5094321;28;19908;-45
2023/03/16 04:54:06;;;;;;;;;;;;;;;;;;5089382;28;19912;-45
2023/03/16 04:56:32;;;;;;;;;;;;;;;;;;5074094;28;20253;-46
2023/03/16 04:58:58;;;;;;;;;;;;;;;;;;5073536;28;19938;-43
2023/03/16 05:01:23;;;;;;;;;;;;;;;;;;5074512;28;19943;-43
2023/03/16 05:03:49;;;;;;;;;;;;;;;;;;5094075;28;19959;-45
2023/03/16 05:06:14;;;;;;;;;;;;;;;;;;5094109;28;19908;-44
2023/03/16 05:08:39;;;;;;;;;;;;;;;;;;5092678;28;19924;-44
2023/03/16 05:11:05;;;;;;;;;;;;;;;;;;5091672;28;19920;-47
2023/03/16 05:13:30;;;;;;;;;;;;;;;;;;5092344;28;19942;-44
2023/03/16 05:15:56;;;;;;;;;;;;;;;;;;5084945;28;19908;-45
2023/03/16 05:18:21;;;;;;;;;;;;;;;;;;5074019;28;19912;-46
2023/03/16 05:20:46;;;;;;;;;;;;;;;;;;5093616;28;19908;-44
2023/03/16 05:23:12;;;;;;;;;;;;;;;;;;5082822;28;19976;-43
2023/03/16 05:25:39;;;;;;;;;;;;;;;;;;5087790;28;19927;-44
2023/03/16 05:28:04;;;;;;;;;;;;;;;;;;5073794;28;20006;-46
2023/03/16 05:30:30;;;;;;;;;;;;;;;;;;5093500;28;20065;-43
2023/03/16 05:32:56;;;;;;;;;;;;;;;;;;5092706;28;20284;-46
2023/03/16 05:35:22;;;;;;;;;;;;;;;;;;5082991;28;19912;-45
2023/03/16 05:37:47;;;;;;;;;;;;;;;;;;5100261;22;19972;-43
2023/03/16 05:40:21;;;;;;;;;;;;;;;;;;5093342;28;19908;-44
2023/03/16 05:42:47;;;;;;;;;;;;;;;;;;5081196;28;19930;-43
2023/03/16 05:45:12;;;;;;;;;;;;;;;;;;5072964;28;19912;-44
2023/03/16 05:47:38;;;;;;;;;;;;;;;;;;5073096;28;19913;-47
2023/03/16 05:50:03;;;;;;;;;;;;;;;;;;5072535;28;19921;-44
2023/03/16 05:52:29;;;;;;;;;;;;;;;;;;5069610;28;19912;-44
2023/03/16 05:54:54;;;;;;;;;;;;;;;;;;5071952;28;19912;-45
2023/03/16 05:57:20;;;;;;;;;;;;;;;;;;5072886;28;20000;-47
2023/03/16 05:59:47;;;;;;;;;;;;;;;;;;5072548;28;19988;-46
2023/03/16 06:02:12;;;;;;;;;;;;;;;;;;5072805;28;19954;-46
2023/03/16 06:04:38;;;;;;;;;;;;;;;;;;5072621;28;19912;-44
2023/03/16 06:07:03;;;;;;;;;;;;;;;;;;5072771;28;19915;-46
2023/03/16 06:09:29;;;;;;;;;;;;;;;;;;5071884;28;19920;-47
2023/03/16 06:11:54;;;;;;;;;;;;;;;;;;5072521;28;19919;-46
2023/03/16 06:14:20;;;;;;;;;;;;;;;;;;5059854;28;19909;-45
2023/03/16 06:16:45;;;;;;;;;;;;;;;;;;5052525;28;19913;-46
2023/03/16 06:19:11;;;;;;;;;;;;;;;;;;5052245;28;19909;-47
2023/03/16 06:21:36;;;;;;;;;;;;;;;;;;5052829;28;19916;-43
2023/03/16 06:24:02;;;;;;;;;;;;;;;;;;5052472;28;20014;-47
2023/03/16 06:26:27;;;;;;;;;;;;;;;;;;5053683;28;20333;-46
2023/03/16 06:28:52;;;;;;;;;;;;;;;;;;5072068;28;19917;-46
2023/03/16 06:31:18;;;;;;;;;;;;;;;;;;5072270;28;19908;-43
2023/03/16 06:33:43;;;;;;;;;;;;;;;;;;5072634;28;19909;-42
2023/03/16 06:36:09;;;;;;;;;;;;;;;;;;5071013;28;19916;-43
2023/03/16 06:38:34;;;;;;;;;;;;;;;;;;5069821;28;19921;-44
2023/03/16 06:41:00;;;;;;;;;;;;;;;;;;5072212;28;19909;-43
2023/03/16 06:43:26;;;;;;;;;;;;;;;;;;5071478;28;20346;-46
2023/03/16 06:45:51;;;;;;;;;;;;;;;;;;5072068;28;20003;-44
2023/03/16 06:48:16;;;;;;;;;;;;;;;;;;5071973;28;19931;-45
2023/03/16 06:50:42;;;;;;;;;;;;;;;;;;5071763;28;19921;-43
2023/03/16 06:53:08;;;;;;;;;;;;;;;;;;5071326;28;19984;-44
2023/03/16 06:55:33;;;;;;;;;;;;;;;;;;5059146;28;19963;-45
2023/03/16 06:57:58;;;;;;;;;;;;;;;;;;5051936;28;19921;-45
2023/03/16 07:00:24;;;;;;;;;;;;;;;;;;5053127;28;19916;-43
2023/03/16 07:02:50;;;;;;;;;;;;;;;;;;5072171;28;19915;-43
2023/03/16 07:05:15;;;;;;;;;;;;;;;;;;5072162;28;19913;-44
2023/03/16 07:07:41;;;;;;;;;;;;;;;;;;5071942;28;19909;-43
2023/03/16 07:10:07;;;;;;;;;;;;;;;;;;5071530;28;19924;-42
2023/03/16 07:12:32;;;;;;;;;;;;;;;;;;5072022;28;19908;-46
2023/03/16 07:14:57;;;;;;;;;;;;;;;;;;5071644;28;19908;-43
2023/03/16 07:17:23;;;;;;;;;;;;;;;;;;5071481;28;19908;-45
2023/03/16 07:19:48;;;;;;;;;;;;;;;;;;5071577;28;19912;-46
2023/03/16 07:22:14;;;;;;;;;;;;;;;;;;5071815;28;19915;-47
2023/03/16 07:24:40;;;;;;;;;;;;;;;;;;5071768;28;20383;-43
2023/03/16 07:27:05;;;;;;;;;;;;;;;;;;5075040;28;20382;-43
2023/03/16 07:29:31;;;;;;;;;;;;;;;;;;5075357;28;19917;-44
2023/03/16 07:31:56;;;;;;;;;;;;;;;;;;5075663;28;19995;-46
2023/03/16 07:34:22;;;;;;;;;;;;;;;;;;5075015;28;20052;-44
2023/03/16 07:36:48;;;;;;;;;;;;;;;;;;5083345;22;20296;-45
2023/03/16 07:39:16;;;;;;;;;;;;;;;;;;5095164;28;20441;-43
2023/03/16 07:41:41;;;;;;;;;;;;;;;;;;5095810;28;19912;-43
2023/03/16 07:44:07;;;;;;;;;;;;;;;;;;5096015;28;20378;-43
2023/03/16 07:46:32;;;;;;;;;;;;;;;;;;5094680;28;19916;-43
2023/03/16 07:48:58;;;;;;;;;;;;;;;;;;5094408;28;19920;-43
2023/03/16 07:51:24;;;;;;;;;;;;;;;;;;5093207;28;19909;-46
2023/03/16 07:53:49;;;;;;;;;;;;;;;;;;5074065;28;19913;-43
2023/03/16 07:56:14;;;;;;;;;;;;;;;;;;5072344;28;19916;-45
2023/03/16 07:58:40;;;;;;;;;;;;;;;;;;5068916;28;19916;-44
2023/03/16 08:01:06;;;;;;;;;;;;;;;;;;5066915;28;19909;-44
2023/03/16 08:03:31;;;;;;;;;;;;;;;;;;5055223;28;19913;-44
2023/03/16 08:05:57;;;;;;;;;;;;;;;;;;5069594;28;20521;-47
2023/03/16 08:08:22;;;;;;;;;;;;;;;;;;5074393;28;19909;-43
2023/03/16 08:10:47;;;;;;;;;;;;;;;;;;5075026;28;19920;-43
2023/03/16 08:13:13;;;;;;;;;;;;;;;;;;5074774;28;19917;-44
2023/03/16 08:15:38;;;;;;;;;;;;;;;;;;5074836;28;19909;-44
2023/03/16 08:18:05;;;;;;;;;;;;;;;;;;5074598;28;20336;-46
2023/03/16 08:20:31;;;;;;;;;;;;;;;;;;5074740;28;19915;-43
2023/03/16 08:22:56;;;;;;;;;;;;;;;;;;5074880;28;20280;-43
2023/03/16 08:25:22;;;;;;;;;;;;;;;;;;5074265;28;20376;-43
2023/03/16 08:27:48;;;;;;;;;;;;;;;;;;5074455;28;19916;-46
2023/03/16 08:30:13;;;;;;;;;;;;;;;;;;5074679;28;19956;-44
2023/03/16 08:32:39;;;;;;;;;;;;;;;;;;5074513;28;19948;-43
2023/03/16 08:35:05;;;;;;;;;;;;;;;;;;5074536;28;19916;-43
2023/03/16 08:37:30;;;;;;;;;;;;;;;;;;5073836;28;19927;-42
2023/03/16 08:39:56;;;;;;;;;;;;;;;;;;5074175;28;19908;-43
2023/03/16 08:42:22;;;;;;;;;;;;;;;;;;5073908;28;20281;-46
2023/03/16 08:44:47;;;;;;;;;;;;;;;;;;5074461;28;19915;-45
2023/03/16 08:47:13;;;;;;;;;;;;;;;;;;5074304;28;19908;-45
2023/03/16 08:49:40;;;;;;;;;;;;;;;;;;5073982;28;19923;-43
2023/03/16 08:52:05;;;;;;;;;;;;;;;;;;5073893;28;19913;-43
2023/03/16 08:54:33;;;;;;;;;;;;;;;;;;5063592;28;19912;-43
2023/03/16 08:56:59;;;;;;;;;;;;;;;;;;5074093;28;19909;-45
2023/03/16 08:59:24;;;;;;;;;;;;;;;;;;5064539;28;19971;-43
2023/03/16 09:01:50;;;;;;;;;;;;;;;;;;5068297;28;19955;-44
2023/03/16 09:04:15;;;;;;;;;;;;;;;;;;5072883;28;19948;-44
2023/03/16 09:06:41;;;;;;;;;;;;;;;;;;5071002;28;19959;-44
2023/03/16 09:09:08;;;;;;;;;;;;;;;;;;5071676;28;19927;-43
2023/03/16 09:11:33;;;;;;;;;;;;;;;;;;5069840;28;19908;-43
2023/03/16 09:13:59;;;;;;;;;;;;;;;;;;5073714;28;19934;-43
2023/03/16 09:16:24;;;;;;;;;;;;;;;;;;5071966;28;19912;-44
2023/03/16 09:18:50;;;;;;;;;;;;;;;;;;5073265;28;20296;-44
2023/03/16 09:21:15;;;;;;;;;;;;;;;;;;5073591;28;19958;-42
2023/03/16 09:23:44;;;;;;;;;;;;;;;;;;5054882;28;19909;-44
2023/03/16 09:26:09;;;;;;;;;;;;;;;;;;5053638;28;19909;-44
2023/03/16 09:28:34;;;;;;;;;;;;;;;;;;5053261;28;19962;-47
2023/03/16 09:31:00;;;;;;;;;;;;;;;;;;5053395;28;19969;-43
2023/03/16 09:33:27;;;;;;;;;;;;;;;;;;5054607;28;20369;-43
2023/03/16 09:35:53;;;;;;;;;;;;;;;;;;5073230;28;20749;-44
2023/03/16 09:38:18;;;;;;;;;;;;;;;;;;5080127;22;19928;-43
2023/03/16 09:40:44;;;;;;;;;;;;;;;;;;5073213;28;19987;-45
2023/03/16 09:43:09;;;;;;;;;;;;;;;;;;5073113;28;20353;-43
2023/03/16 09:45:34;;;;;;;;;;;;;;;;;;5073055;28;19955;-44
2023/03/16 09:48:00;;;;;;;;;;;;;;;;;;5073244;28;19944;-43
2023/03/16 09:50:26;;;;;;;;;;;;;;;;;;5071849;28;19922;-43
2023/03/16 09:52:52;;;;;;;;;;;;;;;;;;5055559;28;20007;-43
2023/03/16 09:55:17;;;;;;;;;;;;;;;;;;5052078;28;19912;-45
2023/03/16 09:57:43;;;;;;;;;;;;;;;;;;5052603;28;19924;-45
2023/03/16 10:00:08;;;;;;;;;;;;;;;;;;5052980;28;19916;-43
2023/03/16 10:02:34;;;;;;;;;;;;;;;;;;5053205;28;19974;-44
2023/03/16 10:04:59;;;;;;;;;;;;;;;;;;5052717;28;19909;-44
2023/03/16 10:07:25;;;;;;;;;;;;;;;;;;5052211;28;19960;-44
2023/03/16 10:09:51;;;;;;;;;;;;;;;;;;5052515;28;20373;-45
2023/03/16 10:12:16;;;;;;;;;;;;;;;;;;5052532;28;19923;-45
2023/03/16 10:14:42;;;;;;;;;;;;;;;;;;5037770;28;19913;-44
2023/03/16 10:17:08;;;;;;;;;;;;;;;;;;5044584;28;19963;-44
2023/03/16 10:19:33;;;;;;;;;;;;;;;;;;5050731;28;19920;-46
2023/03/16 10:21:59;;;;;;;;;;;;;;;;;;5052128;28;19909;-44
2023/03/16 10:24:25;;;;;;;;;;;;;;;;;;5050807;28;19923;-45
2023/03/16 10:26:51;;;;;;;;;;;;;;;;;;5052531;28;19991;-43
2023/03/16 10:29:16;;;;;;;;;;;;;;;;;;5044785;28;20044;-44
2023/03/16 10:31:42;;;;;;;;;;;;;;;;;;5032426;28;19992;-43
2023/03/16 10:34:07;;;;;;;;;;;;;;;;;;5032497;28;20312;-44
2023/03/16 10:36:33;;;;;;;;;;;;;;;;;;5034415;28;19917;-44
2023/03/16 10:38:58;;;;;;;;;;;;;;;;;;5040478;28;19925;-43
2023/03/16 10:41:24;;;;;;;;;;;;;;;;;;5046378;28;19916;-44
2023/03/16 10:43:50;;;;;;;;;;;;;;;;;;5047752;28;19956;-44
2023/03/16 10:46:16;;;;;;;;;;;;;;;;;;5047565;28;19913;-45
2023/03/16 10:48:42;;;;;;;;;;;;;;;;;;5051006;28;20008;-45
2023/03/16 10:51:07;;;;;;;;;;;;;;;;;;5051476;28;20351;-43
2023/03/16 10:53:33;;;;;;;;;;;;;;;;;;5052109;28;20384;-46
2023/03/16 10:55:58;;;;;;;;;;;;;;;;;;5052381;28;19917;-43
2023/03/16 10:58:24;;;;;;;;;;;;;;;;;;5050874;28;20357;-43
2023/03/16 11:00:50;;;;;;;;;;;;;;;;;;5051852;28;19916;-42
2023/03/16 11:03:16;;;;;;;;;;;;;;;;;;5051364;28;19913;-44
2023/03/16 11:05:41;;;;;;;;;;;;;;;;;;5052080;28;19916;-43
2023/03/16 11:08:10;;;;;;;;;;;;;;;;;;5051666;28;19916;-43
2023/03/16 11:10:36;;;;;;;;;;;;;;;;;;5051762;28;19935;-46
2023/03/16 11:13:01;;;;;;;;;;;;;;;;;;5051942;28;19912;-45
2023/03/16 11:15:27;;;;;;;;;;;;;;;;;;5051210;28;19915;-44
2023/03/16 11:17:53;;;;;;;;;;;;;;;;;;5051738;28;20254;-43
2023/03/16 11:20:18;;;;;;;;;;;;;;;;;;5052082;28;20376;-43
2023/03/16 11:22:44;;;;;;;;;;;;;;;;;;5051803;28;19912;-43
2023/03/16 11:25:09;;;;;;;;;;;;;;;;;;5052015;28;19909;-45
2023/03/16 11:27:35;;;;;;;;;;;;;;;;;;5050726;28;19913;-43
2023/03/16 11:30:00;;;;;;;;;;;;;;;;;;5051018;28;19925;-43
2023/03/16 11:32:26;;;;;;;;;;;;;;;;;;5050782;28;19912;-43
2023/03/16 11:34:52;;;;;;;;;;;;;;;;;;5050733;28;19919;-44
2023/03/16 11:37:18;;;;;;;;;;;;;;;;;;5049631;28;19916;-45
2023/03/16 11:39:43;;;;;;;;;;;;;;;;;;5050143;28;19917;-43
2023/03/16 11:42:09;;;;;;;;;;;;;;;;;;5050563;28;19913;-45
2023/03/16 11:44:34;;;;;;;;;;;;;;;;;;5051331;28;20377;-42
2023/03/16 11:47:00;;;;;;;;;;;;;;;;;;5051859;28;19909;-44
2023/03/16 11:49:25;;;;;;;;;;;;;;;;;;5050921;28;19923;-43
2023/03/16 11:51:51;;;;;;;;;;;;;;;;;;5046179;28;20003;-44
2023/03/16 11:54:17;;;;;;;;;;;;;;;;;;5031527;28;20546;-43
2023/03/16 11:56:43;;;;;;;;;;;;;;;;;;5031541;28;19916;-43
2023/03/16 11:59:08;;;;;;;;;;;;;;;;;;5035154;28;19909;-43
2023/03/16 12:01:33;;;;;;;;;;;;;;;;;;5051721;28;19909;-44
2023/03/16 12:04:00;;;;;;;;;;;;;;;;;;5051519;28;20343;-43
2023/03/16 12:06:26;;;;;;;;;;;;;;;;;;5050812;28;19978;-46
2023/03/16 12:08:53;;;;;;;;;;;;;;;;;;5050952;28;19913;-43
2023/03/16 12:11:19;;;;;;;;;;;;;;;;;;5051378;28;20029;-44
2023/03/16 12:13:44;;;;;;;;;;;;;;;;;;5046014;28;19996;-42
2023/03/16 12:16:10;;;;;;;;;;;;;;;;;;5035036;28;20421;-45
2023/03/16 12:18:36;;;;;;;;;;;;;;;;;;5034527;28;19917;-45
2023/03/16 12:21:01;;;;;;;;;;;;;;;;;;5034747;28;19909;-44
2023/03/16 12:23:27;;;;;;;;;;;;;;;;;;5034088;28;20258;-44
2023/03/16 12:25:52;;;;;;;;;;;;;;;;;;5051348;28;19913;-44
2023/03/16 12:28:17;;;;;;;;;;;;;;;;;;5053936;28;19913;-45
2023/03/16 12:30:43;;;;;;;;;;;;;;;;;;5047248;28;19921;-42
2023/03/16 12:33:08;;;;;;;;;;;;;;;;;;5054376;28;19924;-42
2023/03/16 12:35:34;;;;;;;;;;;;;;;;;;5049882;28;19913;-43
2023/03/16 12:38:00;;;;;;;;;;;;;;;;;;5050406;28;20795;-49
2023/03/16 12:40:25;;;;;;;;;;;;;;;;;;5047376;28;19923;-44
2023/03/16 12:42:51;;;;;;;;;;;;;;;;;;5050898;28;19917;-42
2023/03/16 12:45:16;;;;;;;;;;;;;;;;;;5050401;28;19999;-44
2023/03/16 12:47:42;;;;;;;;;;;;;;;;;;5053280;28;19938;-43
2023/03/16 12:50:07;;;;;;;;;;;;;;;;;;5054322;28;19916;-45
2023/03/16 12:52:33;;;;;;;;;;;;;;;;;;5052817;28;19962;-43
2023/03/16 12:54:58;;;;;;;;;;;;;;;;;;5054400;28;19909;-44
2023/03/16 12:57:25;;;;;;;;;;;;;;;;;;5033178;28;20389;-42
2023/03/16 12:59:51;;;;;;;;;;;;;;;;;;5034503;28;20350;-42
2023/03/16 13:02:18;;;;;;;;;;;;;;;;;;5039933;28;19974;-42
2023/03/16 13:04:43;;;;;;;;;;;;;;;;;;5049063;28;19954;-42
2023/03/16 13:07:10;;;;;;;;;;;;;;;;;;5044244;28;19912;-42
2023/03/16 13:09:36;;;;;;;;;;;;;;;;;;5049085;28;19920;-43
2023/03/16 13:12:05;;;;;;;;;;;;;;;;;;5054099;28;19909;-44
2023/03/16 13:14:30;;;;;;;;;;;;;;;;;;5045152;28;19919;-43
2023/03/16 13:16:56;;;;;;;;;;;;;;;;;;5053765;28;19999;-44
2023/03/16 13:19:21;;;;;;;;;;;;;;;;;;5036781;28;20016;-43
2023/03/16 13:21:47;;;;;;;;;;;;;;;;;;5052319;28;19944;-46
2023/03/16 13:24:12;;;;;;;;;;;;;;;;;;5035824;28;19920;-43
2023/03/16 13:26:38;;;;;;;;;;;;;;;;;;5033954;28;19963;-43
2023/03/16 13:29:03;;;;;;;;;;;;;;;;;;5048636;28;19972;-42
2023/03/16 13:31:29;;;;;;;;;;;;;;;;;;5046377;28;19964;-43
2023/03/16 13:33:55;;;;;;;;;;;;;;;;;;5040340;28;20345;-43
2023/03/16 13:36:21;;;;;;;;;;;;;;;;;;5045089;28;19917;-45
2023/03/16 13:38:46;;;;;;;;;;;;;;;;;;5045762;28;20266;-43
2023/03/16 13:41:11;;;;;;;;;;;;;;;;;;5038084;28;19953;-48
2023/03/16 13:43:37;;;;;;;;;;;;;;;;;;5035291;28;20013;-47
2023/03/16 13:46:03;;;;;;;;;;;;;;;;;;5051667;28;20007;-46
2023/03/16 13:48:29;;;;;;;;;;;;;;;;;;5050657;28;19919;-45
2023/03/16 13:50:56;;;;;;;;;;;;;;;;;;5042430;28;19936;-47
2023/03/16 13:53:23;;;;;;;;;;;;;;;;;;5048598;28;19916;-49
2023/03/16 13:55:49;;;;;;;;;;;;;;;;;;5050373;28;19925;-41
2023/03/16 13:58:14;;;;;;;;;;;;;;;;;;5032876;28;19967;-43
2023/03/16 14:00:39;;;;;;;;;;;;;;;;;;5039454;28;19969;-49
2023/03/16 14:03:05;;;;;;;;;;;;;;;;;;5046281;28;19923;-48
2023/03/16 14:05:30;;;;;;;;;;;;;;;;;;5032873;28;19942;-44
2023/03/16 14:07:56;;;;;;;;;;;;;;;;;;5050371;28;19917;-44
2023/03/16 14:10:21;;;;;;;;;;;;;;;;;;5034848;28;19928;-44
2023/03/16 14:12:47;;;;;;;;;;;;;;;;;;5049380;28;19928;-46
2023/03/16 14:15:12;;;;;;;;;;;;;;;;;;5037361;28;19919;-47
2023/03/16 14:17:37;;;;;;;;;;;;;;;;;;5047329;28;19931;-44
2023/03/16 14:20:04;;;;;;;;;;;;;;;;;;5033153;28;20000;-46
2023/03/16 14:22:29;;;;;;;;;;;;;;;;;;5046334;28;19917;-47
2023/03/16 14:24:57;;;;;;;;;;;;;;;;;;5052266;28;19913;-47
2023/03/16 14:27:23;;;;;;;;;;;;;;;;;;5052258;28;19916;-46
2023/03/16 14:29:48;;;;;;;;;;;;;;;;;;5047778;28;19917;-43
2023/03/16 14:32:14;;;;;;;;;;;;;;;;;;5035684;28;19913;-45
2023/03/16 14:34:39;;;;;;;;;;;;;;;;;;5033256;28;20203;-47
2023/03/16 14:37:05;;;;;;;;;;;;;;;;;;5032367;28;19917;-47
2023/03/16 14:39:30;;;;;;;;;;;;;;;;;;5049079;28;20444;-45
2023/03/16 14:41:55;;;;;;;;;;;;;;;;;;5050226;28;19916;-45
2023/03/16 14:44:21;;;;;;;;;;;;;;;;;;5045047;28;19912;-45
2023/03/16 14:46:46;;;;;;;;;;;;;;;;;;5031916;28;20040;-44
2023/03/16 14:49:12;;;;;;;;;;;;;;;;;;5048071;28;20008;-43
2023/03/16 14:51:37;;;;;;;;;;;;;;;;;;5034187;28;20019;-45
2023/03/16 14:54:02;;;;;;;;;;;;;;;;;;5039640;28;19916;-45
2023/03/16 14:56:28;;;;;;;;;;;;;;;;;;5048866;28;19913;-45
2023/03/16 14:58:54;;;;;;;;;;;;;;;;;;5031882;28;19909;-44
2023/03/16 15:01:19;;;;;;;;;;;;;;;;;;5052376;28;19952;-47
2023/03/16 15:03:45;;;;;;;;;;;;;;;;;;5047697;28;19919;-47
2023/03/16 15:06:10;;;;;;;;;;;;;;;;;;5052192;28;19916;-48
2023/03/16 15:08:42;;;;;;;;;;;;;;;;;;5043848;28;19917;-45
2023/03/16 15:11:08;;;;;;;;;;;;;;;;;;5034178;28;19921;-48
2023/03/16 15:13:41;;;;;;;;;;;;;;;;;;5042510;28;20000;-45
2023/03/16 15:16:07;;;;;;;;;;;;;;;;;;5034765;28;19935;-44
2023/03/16 15:18:33;;;;;;;;;;;;;;;;;;5030199;28;19928;-46
2023/03/16 15:20:59;;;;;;;;;;;;;;;;;;5047132;28;20015;-44
2023/03/16 15:23:24;;;;;;;;;;;;;;;;;;5048151;28;19967;-44
2023/03/16 15:25:51;;;;;;;;;;;;;;;;;;5052049;28;20008;-47
2023/03/16 15:28:17;;;;;;;;;;;;;;;;;;5051339;28;19913;-46
2023/03/16 15:30:42;;;;;;;;;;;;;;;;;;5051863;28;19917;-43
2023/03/16 15:33:08;;;;;;;;;;;;;;;;;;5051973;28;19912;-44
2023/03/16 15:35:33;;;;;;;;;;;;;;;;;;5052206;28;19909;-44
2023/03/16 15:37:59;;;;;;;;;;;;;;;;;;5050564;28;19979;-44
2023/03/16 15:40:24;;;;;;;;;;;;;;;;;;5047536;28;20320;-45
2023/03/16 15:42:50;;;;;;;;;;;;;;;;;;5042325;28;19913;-45
2023/03/16 15:45:19;;;;;;;;;;;;;;;;;;5051697;28;20285;-46
2023/03/16 15:47:45;;;;;;;;;;;;;;;;;;5046116;28;19913;-44
2023/03/16 15:50:11;;;;;;;;;;;;;;;;;;5054859;28;20289;-46
2023/03/16 15:52:36;;;;;;;;;;;;;;;;;;5055548;28;19909;-43
2023/03/16 15:55:06;;;;;;;;;;;;;;;;;;5040145;28;19913;-46
2023/03/16 15:57:31;;;;;;;;;;;;;;;;;;5039433;28;19920;-42
2023/03/16 15:59:58;;;;;;;;;;;;;;;;;;5042178;28;19917;-44
2023/03/16 16:02:23;;;;;;;;;;;;;;;;;;5052502;28;19920;-44
2023/03/16 16:04:48;;;;;;;;;;;;;;;;;;5048734;28;19913;-47
2023/03/16 16:07:14;;;;;;;;;;;;;;;;;;5039601;28;19913;-44
2023/03/16 16:09:40;;;;;;;;;;;;;;;;;;5052809;28;19916;-47
2023/03/16 16:12:06;;;;;;;;;;;;;;;;;;5052425;28;19916;-46
2023/03/16 16:14:33;;;;;;;;;;;;;;;;;;5050800;28;19917;-44
2023/03/16 16:16:58;;;;;;;;;;;;;;;;;;5050040;28;19920;-44
2023/03/16 16:19:24;;;;;;;;;;;;;;;;;;5046463;28;19920;-48
2023/03/16 16:21:49;;;;;;;;;;;;;;;;;;5055046;28;20331;-45
2023/03/16 16:24:17;;;;;;;;;;;;;;;;;;5053618;28;19935;-45
2023/03/16 16:26:48;;;;;;;;;;;;;;;;;;5045423;28;19959;-46
2023/03/16 16:29:13;;;;;;;;;;;;;;;;;;5037409;28;19921;-47
2023/03/16 16:31:38;;;;;;;;;;;;;;;;;;5044741;28;19924;-44
2023/03/16 16:34:04;;;;;;;;;;;;;;;;;;5053252;28;19924;-46
2023/03/16 16:36:31;;;;;;;;;;;;;;;;;;5054925;28;19931;-48